Nearby METAR Reports

 

NZWN - Wellington Intl, New Zealand
Distance from station: SSE 156km
Updated: Sat, 15-Dec-2018 11:00pm NZDT
Overcast
Overcast
 Wind from S
Wind: S 20 km/h
Temperature: 16°C
Dew Point: 13°C
Humidity: 83%
Barometer: 1024 hPa
Clouds: Overcast
Visibility: 10 km
Cloud details: Overcast 427 m
2018/12/15 10:00 NZWN 151000Z AUTO 18011KT 9999 OVC014/// 16/13 Q1024 BECMG BKN006
NZAA - Auckland Intl Ar, New Zealand
Distance from station: N 334km
Updated: Sat, 15-Dec-2018 11:00pm NZDT
Clear
Clear
 Wind from NNE
Wind: NNE 6 km/h
Temperature: 18°C
Dew Point: 16°C
Humidity: 88%
Barometer: 1021 hPa
Clouds: Clear
Visibility: 10 km
2018/12/15 10:00 NZAA 151000Z AUTO 02003KT 9999 NCD 18/16 Q1021 NOSIG
 
NZWP - Whenuapai (nz-Af, New Zealand
Distance from station: N 359km
Updated: Thu, 08-Nov-2018 5:00pm NZDT
NOT Current
Nearby showers, Mostly cloudy
Nearby showers, Mostly cloudy
 Wind from W
Wind: W 19 km/h
Temperature: 20°C
Dew Point: 15°C
Humidity: 73%
Barometer: 1015 hPa
Summary: Nearby Showers
Clouds: Mostly cloudy
Cloud details: Partly cloudy 549 m
Mostly cloudy 671 m
2018/11/08 04:00 NZWP 080400Z 28010KT 20KM VCSH SCT018 BKN022 20/15 Q1015 TEMPO NOSIG
NZCH - Christchurch Int, New Zealand
Distance from station: SSW 412km
Updated: Sat, 15-Dec-2018 11:00pm NZDT
Overcast
Overcast
 Wind from E
Wind: E 11 km/h
Temperature: 14°C
Dew Point: 13°C
Humidity: 94%
Barometer: 1025 hPa
Clouds: Overcast
Visibility: 8 km
Cloud details: Partly cloudy 213 m
Overcast 427 m
2018/12/15 10:00 NZCH 151000Z AUTO 08006KT 8000 SCT007/// OVC014/// 14/13 Q1025 NOSIG

Metar display script from Saratoga-Weather.org